x

9410230 - La Jolla, Ca (ljac1) Weather Station

9:30 - Sun 4th Dec 2016 All times are PST. -8 hours from GMT.

  • Wind
    1mph
  • Sea Temp 59°f
  • Air Temp 66°f
  • Sea Pressure 1018.8mb
  • 9410230 - La Jolla, Ca
  • 9410230 - La Jolla, Ca

More Historic Weather Station data

Upgrade to MSW Pro to gain access to the past 30 days of data for over 8000 Wavebouys and Weather Stations around the globe.

Join Pro

Comparision Forecast

View Surf forecast
   
dim. 12/04 9:30 1
mph
1018.8mb 59f 66f
9:24  -  1 mph 1018.8mb 59f 68f
9:18  -  mph 1018.8mb 59f 67f
9:12  -  1 mph 1018.8mb 59f 66f
9:06  -  2 mph 1018.8mb 59f 64f
9:00 2 3 mph 1018.8mb 59f 62f
8:54 2 3 mph 1018.7mb 59f 62f
8:48 3
mph
1018.7mb 59f 61f
8:42 3
mph
1018.6mb 59f 62f
8:36 2 3 mph 1018.6mb 59f 62f
8:30 1 2 mph 1018.5mb 59f 65f
8:24  -  mph 1018.5mb 59f 68f
8:18  -  mph 1018.6mb 59f 68f
8:12  -  1 mph 1018.6mb 59f 67f
8:06 1 2 mph 1018.6mb 59f 65f
8:00  -  2 mph 1018.6mb 59f 65f
7:54 2 3 mph 1018.5mb 59f 63f
7:48 1 2 mph 1018.5mb 59f 62f
7:42 2
mph
1018.5mb 59f 62f
7:36 1 2 mph 1018.5mb 59f 60f
7:30 1 5 mph 1018.5mb 59f 60f
7:24 1 3 mph 1018.6mb 59f 59f
7:18 3 6 mph 1018.5mb 59f 58f
7:12 1 8 mph 1018.4mb 59f 57f
7:06 1 5 mph 1018.4mb 59f 56f
7:00 2 6 mph 1018.4mb 59f 57f
6:54 3 6 mph 1018.5mb 59f 57f
6:48 2 5 mph 1018.3mb 59f 57f
6:42 1 3 mph 1018.3mb 59f 57f
6:36  -  2 mph 1018.2mb 59f 58f
6:30 1 5 mph 1018.2mb 59f 58f
6:24 2 5 mph 1018.2mb 59f 58f
6:18 5 6 mph 1018.1mb 59f 58f
6:12  -  3 mph 1018.1mb 59f 58f
6:06  -  2 mph 1018mb 59f 58f
6:00  -  3 mph 1017.9mb 59f 58f
5:54 2 3 mph 1017.8mb 59f 59f
5:48 1 3 mph 1017.8mb 59f 59f
5:42 3 5 mph 1017.8mb 59f 59f
5:36 2 5 mph 1017.7mb 59f 57f
5:30 2 6 mph 1017.7mb 59f 56f
5:24 2 7 mph 1017.6mb 59f 57f
5:18 3 7 mph 1017.5mb 58f 57f
5:12 5 8 mph 1017.6mb 59f 57f
5:06 6 14 mph 1017.6mb 59f 57f
5:00 13 14 mph 1017.4mb 58f 58f
4:54 10 13 mph 1017.5mb 58f 57f
4:48 9 13 mph 1017.6mb 59f 57f
4:42 11 13 mph 1017.5mb 59f 57f
4:36 6 11 mph 1017.5mb 59f 57f
4:30 11 13 mph 1017.5mb 59f 57f
4:24 10 13 mph 1017.5mb 59f 57f
4:18 11 14 mph 1017.4mb 59f 57f
4:12 13 16 mph 1017.4mb 59f 56f
4:06 13 14 mph 1017.4mb 59f 56f
4:00 13 14 mph 1017.4mb 59f 56f
3:54 10 14 mph 1017.6mb 59f 56f
3:48 11 13 mph 1017.7mb 58f 57f
3:42 9 11 mph 1017.8mb 58f 56f
3:36 10 13 mph 1017.9mb 59f 56f
3:30 9 11 mph 1017.9mb 58f 56f
3:24 9 10 mph 1017.9mb 58f 56f
3:18 9 11 mph 1017.9mb 58f 56f
3:12 9 11 mph 1018mb 59f 56f
3:06 8
mph
1017.9mb 59f 57f
3:00 6 8 mph 1017.9mb 59f 57f
2:54 7 8 mph 1017.9mb 59f 57f
2:48 7 9 mph 1017.9mb 59f 57f
2:42 5 6 mph 1017.9mb 58f 58f
2:36 5 6 mph 1018mb 58f 58f
2:30 6 7 mph 1018mb 58f 57f
2:24 6 8 mph 1018mb 58f 58f
2:18 6 8 mph 1018mb 58f 57f
2:12 6 7 mph 1018mb 59f 56f
2:06 3 7 mph 1018mb 59f 56f
2:00 6 9 mph 1018.1mb 59f 56f
1:54 6 8 mph 1018.1mb 59f 57f
1:48 3 5 mph 1018.1mb 59f 57f
1:42 3
mph
1018.2mb 59f 57f
1:36 1 2 mph 1018.1mb 59f 57f
1:30  -  2 mph 1018.1mb 59f 58f
1:24 2 3 mph 1018.2mb 59f 58f
1:18 5 7 mph 1018.2mb 59f 57f
1:12 7 9 mph 1018.1mb 59f 57f
1:06 5 6 mph 1018.1mb 59f 57f
1:00 2 3 mph 1018.1mb 59f 58f
12:54 1 2 mph 1018.2mb 59f 57f
12:48  -  6 mph 1018.2mb 59f 58f
12:42 5 6 mph 1018.1mb 59f 58f
12:36 5
mph
1018.1mb 59f 58f
12:30 3 6 mph 1018mb 59f 58f
12:24 3
mph
1017.9mb 59f 58f
12:18 3 5 mph 1017.9mb 59f 57f
12:12 2
mph
1017.9mb 59f 57f
12:06 1 2 mph 1017.9mb 59f 57f
12:00 1 2 mph 1018mb 59f 58f
sam. 12/03 11:54 3 5 mph 1018mb 59f 58f
11:48 1 6 mph 1018.1mb 59f 58f
11:42 5 6 mph 1018mb 59f 59f
11:36 3 5 mph 1018.1mb 59f 58f
11:30 2 3 mph 1018.1mb 59f 58f
11:24 2 5 mph 1018.1mb 59f 58f
11:18 3 9 mph 1018.2mb 59f 58f
11:12 8 10 mph 1018.1mb 59f 59f
11:06 9 10 mph 1017.9mb 59f 58f
11:00 7 9 mph 1018mb 59f 58f
10:54 3 6 mph 1018mb 59f 59f
10:48 2 6 mph 1018mb 59f 59f
10:42  -  2 mph 1018mb 59f 59f
10:36 2 5 mph 1017.9mb 59f 59f
10:30 5 8 mph 1018mb 59f 59f
10:24 5 6 mph 1018mb 59f 58f
10:18 3 6 mph 1017.9mb 59f 58f
10:12 3 5 mph 1017.8mb 59f 59f
10:06 5
mph
1018mb 59f 59f
10:00 2 3 mph 1017.9mb 59f 59f
9:54 3
mph
1017.8mb 59f 59f
9:48 3 5 mph 1017.9mb 59f 59f
9:42 2 5 mph 1017.8mb 59f 59f
9:36 2 3 mph 1017.8mb 59f 59f
9:30 2 3 mph 1017.9mb 59f 60f
9:24 2
mph
1018mb 59f 60f
9:18 1 2 mph 1018mb 59f 60f
9:12 1 2 mph 1018mb 59f 60f
9:06 2
mph
1018mb 59f 60f
9:00 1 2 mph 1017.9mb 59f 59f
8:54  -  2 mph 1017.9mb 59f 59f
8:48  -  1 mph 1017.9mb 59f 59f
8:42  -  1 mph 1017.9mb 59f 59f
8:36  -  mph 1017.9mb 59f 60f
8:30  -  1 mph 1017.9mb 59f 60f
8:24 1 2 mph 1017.9mb 59f 60f
8:18 2 3 mph 1017.8mb 59f 60f
8:12 1 2 mph 1017.8mb 59f 60f
8:06  -  1 mph 1017.7mb 59f 61f
8:00 1 3 mph 1017.7mb 59f 61f
7:54 3
mph
1017.6mb 59f 61f
7:48 2
mph
1017.8mb 59f 60f
7:42 2
mph
1017.8mb 59f 61f
7:36 2 5 mph 1017.8mb 59f 62f
7:30 3 5 mph 1017.7mb 59f 62f
7:24 5
mph
1017.6mb 60f 62f
7:18 5 6 mph 1017.6mb 60f 62f
7:12 5 7 mph 1017.6mb 60f 62f
7:06 6 8 mph 1017.6mb 59f 62f
7:00 6 7 mph 1017.6mb 60f 62f
6:54 6
mph
1017.6mb 60f 63f
6:48 5 7 mph 1017.6mb 60f 63f
6:42 6 8 mph 1017.7mb 60f 63f
6:36 6 7 mph 1017.6mb 60f 62f
6:30 6 7 mph 1017.6mb 60f 62f
6:24 6 7 mph 1017.6mb 60f 62f
6:18 6 7 mph 1017.6mb 60f 62f
6:12 5 6 mph 1017.5mb 60f 62f
6:06 3 5 mph 1017.4mb 60f 62f
6:00 3 6 mph 1017.5mb 60f 62f
5:54 5 7 mph 1017.4mb 60f 62f
5:48 6 8 mph 1017.4mb 60f 63f
5:42 6 8 mph 1017.5mb 60f 63f
5:36 7 9 mph 1017.5mb 60f 63f
5:30 8 9 mph 1017.5mb 60f 63f
5:24 9
mph
1017.4mb 60f 63f
5:18 8
mph
1017.4mb 60f 63f
5:12 7 8 mph 1017.3mb 60f 63f
5:06 8
mph
1017.3mb 60f 63f
5:00 8
mph
1017.3mb 60f 63f
4:54 7
mph
1017.3mb 60f 63f
4:48 6
mph
1017.2mb 60f 63f
4:42 5 6 mph 1017.2mb 60f 63f
4:36 6 8 mph 1017.1mb 60f 63f
4:30 8 9 mph 1017.1mb 60f 63f
4:24 8 9 mph 1017.2mb 60f 64f
4:18 8 10 mph 1017.1mb 60f 64f
4:12 9 11 mph 1017.2mb 60f 64f
4:06 10 11 mph 1017.2mb 60f 64f
4:00 10
mph
1017.3mb 60f 64f
3:54 9 10 mph 1017.2mb 60f 64f
3:48 10
mph
1017.2mb 60f 64f
3:42 9 10 mph 1017.2mb 60f 64f
3:36 9 10 mph 1017.3mb 60f 64f
3:30 9 10 mph 1017.4mb 60f 64f
3:24 10 11 mph 1017.5mb 60f 64f
3:18 10 13 mph 1017.4mb 60f 64f
3:12 11 14 mph 1017.5mb 60f 64f
3:06 11 14 mph 1017.5mb 60f 64f
3:00 11 14 mph 1017.5mb 60f 64f
2:54 13 16 mph 1017.4mb 60f 64f
2:48 14 15 mph 1017.4mb 60f 64f
2:42 13 15 mph 1017.5mb 60f 64f
2:36 13 15 mph 1017.4mb 60f 64f
2:30 14 15 mph 1017.4mb 60f 64f
2:24 13 15 mph 1017.5mb 60f 64f
2:18 13 15 mph 1017.5mb 60f 64f
2:12 14 15 mph 1017.5mb 60f 64f
2:06 14 16 mph 1017.4mb 60f 64f
2:00 14 16 mph 1017.4mb 60f 64f
1:54 15 17 mph 1017.5mb 60f 64f
1:48 14 17 mph 1017.5mb 60f 64f
1:42 13 16 mph 1017.6mb 60f 64f
1:36 14 16 mph 1017.5mb 60f 64f
1:30 14 15 mph 1017.6mb 60f 64f
1:24 14 16 mph 1017.6mb 60f 64f
1:18 13 14 mph 1017.6mb 60f 64f
1:12 11 14 mph 1017.6mb 60f 65f
1:06 10 13 mph 1017.7mb 60f 65f
1:00 10 13 mph 1017.7mb 60f 64f
12:54 9 10 mph 1017.8mb 60f 65f
12:48 8 9 mph 1017.8mb 60f 65f
12:42 6 7 mph 1017.9mb 60f 65f
12:36 6 8 mph 1018mb 60f 65f
12:30 6 7 mph 1018.1mb 60f 64f
12:24 5 6 mph 1018.3mb 60f 64f
12:18 3 6 mph 1018.4mb 60f 64f
12:12 5 6 mph 1018.5mb 60f 63f
12:06 2 3 mph 1018.7mb 60f 63f
12:00 2 3 mph 1018.8mb 60f 64f
11:54 1
mph
1018.8mb 60f 66f
11:48 1 2 mph 1018.9mb 60f 66f
11:42 2 3 mph 1019mb 60f 65f
11:36 1
mph
1019mb 60f 66f
11:30  -  1 mph 1019.1mb 60f 67f
11:24  -  2 mph 1019.2mb 60f 66f
11:18 1 3 mph 1019.4mb 60f 64f
11:12 3 5 mph 1019.5mb 60f 62f
11:00 3 6 mph 1019.7mb 60f 62f
10:54 6 7 mph 1019.8mb 60f 62f
10:48 6 7 mph 1019.9mb 60f 62f
10:42 2 3 mph 1019.9mb 59f 64f
10:36 3
mph
1020mb 59f 62f
10:30 2 3 mph 1020.1mb 59f 63f
10:24 2 3 mph 1020.1mb 60f 64f
10:18  -  1 mph 1020.2mb 59f 66f
10:12  -  3 mph 1020.2mb 59f 64f
10:06 2 6 mph 1020.2mb 59f 62f
10:00 5 8 mph 1020.2mb 59f 61f
9:54 5 7 mph 1020.2mb 59f 61f
9:48 3 5 mph 1020.3mb 59f 62f
9:42 3
mph
1020.3mb 59f 63f
9:36 2
mph
1020.3mb 59f 62f
9:30 1 2 mph 1020.2mb 59f 63f
9:24 2
mph
1020mb 59f 62f
9:18 2 3 mph 1019.9mb 59f 62f
9:12 2
mph
1019.9mb 59f 62f
9:06  -  2 mph 1020mb 59f 63f
9:00  -  1 mph 1020mb 59f 63f
8:54  -  3 mph 1019.9mb 59f 61f
8:48 3 7 mph 1019.8mb 59f 59f
8:42 7 9 mph 1019.6mb 59f 58f
8:36 7 9 mph 1019.5mb 59f 58f
8:30 8 10 mph 1019.5mb 59f 58f
8:24  -  3 mph 1019.4mb 59f 61f
8:18 3
mph
1019.4mb 59f 60f
8:12 2 5 mph 1019.4mb 59f 59f
8:06 5 7 mph 1019.3mb 59f 58f
8:00 6 7 mph 1019.2mb 59f 57f
7:54 5 6 mph 1019.2mb 59f 57f
7:48 6 9 mph 1019.1mb 59f 57f
7:42 3 6 mph 1019.1mb 59f 57f
7:36 3 7 mph 1019mb 59f 57f
7:30 5 10 mph 1018.9mb 59f 58f
7:24 8 9 mph 1018.8mb 59f 57f
7:18 2 3 mph 1018.8mb 59f 56f
7:12 3 5 mph 1018.9mb 59f 55f
7:06 2 3 mph 1019mb 59f 54f
7:00 2 7 mph 1019.1mb 59f 56f
6:54 5 6 mph 1019mb 59f 55f
6:48 5 6 mph 1019.1mb 59f 55f
6:42 2 3 mph 1019mb 59f 54f
6:36 3 5 mph 1018.7mb 59f 55f
6:30  -  5 mph 1018.7mb 59f 53f
6:24 2 6 mph 1018.8mb 59f 54f
6:18 5 6 mph 1018.7mb 59f 56f
6:12 1 2 mph 1018.7mb 59f 55f
6:06  -  1 mph 1018.7mb 59f 54f
6:00  -  2 mph 1018.5mb 59f 55f
5:54 2 3 mph 1018.4mb 59f 54f
5:48 3
mph
1018.3mb 59f 54f
5:42 2 5 mph 1018.2mb 59f 55f
5:36 5 6 mph 1018.3mb 59f 54f
5:30 3 5 mph 1018.3mb 59f 55f
5:24 3 5 mph 1018.2mb 59f 54f
5:18 3 6 mph 1018mb 59f 54f
5:12  -  5 mph 1017.9mb 59f 55f
5:06 2 5 mph 1017.9mb 59f 55f
5:00 3 5 mph 1017.9mb 59f 54f
4:54 1 2 mph 1017.7mb 59f 55f
4:48 2
mph
1017.8mb 59f 55f
4:42  -  2 mph 1017.7mb 59f 55f
4:36 2 5 mph 1017.6mb 59f 57f
4:30 2 5 mph 1017.7mb 59f 56f
4:24 2 6 mph 1017.7mb 59f 56f
4:18 3 5 mph 1017.7mb 59f 56f
4:12 2 6 mph 1017.6mb 59f 56f
4:06  -  2 mph 1017.7mb 59f 57f
4:00 3 5 mph 1017.8mb 59f 57f
3:54 3
mph
1017.9mb 59f 56f
3:48  -  1 mph 1018mb 59f 55f
3:42  -  3 mph 1017.9mb 59f 55f
3:36 1 2 mph 1017.8mb 59f 55f
3:30 1 2 mph 1017.8mb 59f 55f
3:24 3
mph
1017.8mb 59f 56f
3:18 2
mph
1017.8mb 59f 56f
3:12  -  2 mph 1017.8mb 59f 56f
3:06  -  2 mph 1017.8mb 59f 57f
3:00 1 3 mph 1017.8mb 59f 58f
2:54 2 3 mph 1017.7mb 59f 57f
2:48 1 2 mph 1017.6mb 59f 56f
2:42 1 2 mph 1017.6mb 59f 56f
2:36  -  1 mph 1017.5mb 59f 57f
2:30 1 2 mph 1017.6mb 59f 58f
2:24 3 5 mph 1017.5mb 59f 58f
2:18 2 3 mph 1017.6mb 59f 58f
2:12 2
mph
1017.6mb 59f 57f
2:06 2 3 mph 1017.6mb 59f 57f
2:00 2 5 mph 1017.5mb 59f 58f
1:54 1 5 mph 1017.5mb 59f 57f
1:48 3
mph
1017.5mb 59f 57f
1:42  -  1 mph 1017.6mb 59f 56f
1:36  -  2 mph 1017.6mb 59f 57f
1:30 2 3 mph 1017.5mb 59f 58f
1:24 2
mph
1017.4mb 59f 58f
1:18 1
mph
1017.3mb 59f 56f
1:12  -  2 mph 1017.3mb 59f 56f
1:06  -  1 mph 1017.3mb 59f 57f
1:00  -  2 mph 1017.3mb 59f 57f
12:54 1 2 mph 1017.3mb 59f 58f
12:48 1 2 mph 1017.2mb 59f 58f
12:42 2
mph
1017.2mb 59f 58f
12:36 2
mph
1017.2mb 59f 57f
12:30 1 2 mph 1017.2mb 59f 57f
12:24 1
mph
1017.2mb 59f 57f
12:18 1 2 mph 1017.3mb 59f 57f
12:12 1 3 mph 1017.3mb 59f 58f
12:06 2 3 mph 1017.3mb 59f 58f
12:00  -  1 mph 1017.2mb 59f 58f
ven. 12/02 11:54 1 2 mph 1017.3mb 59f 57f
11:48  -  2 mph 1017.2mb 59f 57f
11:42 1 2 mph 1017.4mb 59f 57f
11:36  -  1 mph 1017.5mb 58f 56f
11:30 1 2 mph 1017.5mb 58f 57f
11:24  -  1 mph 1017.5mb 58f 57f
11:18  -  1 mph 1017.5mb 58f 56f
11:12  -  1 mph 1017.5mb 58f 56f
11:06  -  1 mph 1017.4mb 59f 57f
11:00  -  1 mph 1017.5mb 59f 57f
10:54  -  2 mph 1017.6mb 59f 57f
10:48  -  2 mph 1017.7mb 59f 58f
10:42 2 5 mph 1017.7mb 59f 59f
10:36 3 5 mph 1017.6mb 59f 59f
10:30 2 3 mph 1017.5mb 60f 58f
10:24 2 3 mph 1017.5mb 60f 58f
10:18 2 3 mph 1017.4mb 60f 58f
10:12 2
mph
1017.4mb 60f 58f
10:06  -  1 mph 1017.3mb 60f 58f
10:00 1 6 mph 1017.3mb 60f 60f
9:54 3 6 mph 1017.2mb 60f 61f
9:48 6 8 mph 1017.1mb 60f 61f
9:42 7 10 mph 1017.1mb 60f 61f
9:36 9 10 mph 1017mb 60f 61f
9:30 9 10 mph 1016.9mb 60f 61f
9:24 8 13 mph 1017mb 60f 61f
9:18 10 11 mph 1016.8mb 60f 62f
9:12 8 14 mph 1016.8mb 59f 62f
9:06 10 14 mph 1016.7mb 59f 62f
9:00 10 14 mph 1016.7mb 59f 62f
8:54 10 11 mph 1016.8mb 60f 62f
8:48 9 11 mph 1016.8mb 60f 62f
8:42 9 11 mph 1016.7mb 59f 62f
8:36 9 10 mph 1016.7mb 59f 62f
8:30 8 11 mph 1016.9mb 59f 62f
8:24 8 10 mph 1016.7mb 59f 62f
8:18 9 11 mph 1016.7mb 59f 62f
8:12 9 13 mph 1016.7mb 59f 62f
8:06 9 13 mph 1016.6mb 59f 62f
8:00 9 10 mph 1016.5mb 59f 62f
7:54 7 9 mph 1016.4mb 59f 61f
7:48 7 8 mph 1016.4mb 59f 62f
7:42 6 7 mph 1016.3mb 59f 62f
7:36 5 7 mph 1016.2mb 60f 62f
7:30 5 9 mph 1016.1mb 60f 62f
7:24 6 8 mph 1016.1mb 60f 63f
7:18 6 8 mph 1016mb 60f 63f
7:12 7 14 mph 1016mb 60f 63f
7:06 8 15 mph 1015.9mb 60f 63f
7:00 9 15 mph 1015.8mb 60f 63f
6:54 8 15 mph 1015.7mb 60f 63f
6:48 9 15 mph 1015.6mb 60f 63f
6:42 10 15 mph 1015.5mb 60f 63f
6:36 10 15 mph 1015.5mb 60f 63f
6:30 8 15 mph 1015.5mb 60f 63f
6:24 8 14 mph 1015.5mb 60f 64f
6:18 8 10 mph 1015.4mb 60f 64f
6:12 8 11 mph 1015.3mb 60f 64f
6:06 9 13 mph 1015.2mb 61f 64f
6:00 9 14 mph 1015.1mb 61f 64f
5:54 13 15 mph 1015mb 61f 65f
5:48 13 14 mph 1015mb 61f 65f
5:42 13 14 mph 1014.9mb 61f 65f
5:36 14 15 mph 1014.8mb 61f 65f
5:30 14 15 mph 1014.7mb 61f 65f
5:24 13 15 mph 1014.7mb 61f 65f
5:18 14 16 mph 1014.6mb 61f 65f
5:12 13 17 mph 1014.7mb 61f 65f
5:06 14 17 mph 1014.6mb 61f 65f
5:00 15 18 mph 1014.4mb 61f 66f
4:54 15 18 mph 1014.3mb 61f 66f
4:48 16 20 mph 1014.3mb 61f 66f
4:42 15 18 mph 1014.3mb 61f 66f
4:36 17 18 mph 1014.1mb 61f 67f
4:30 14 18 mph 1014.1mb 61f 66f
4:24 16 20 mph 1014.1mb 61f 67f
4:18 17 21 mph 1013.9mb 61f 66f
4:12 20 22 mph 1014mb 61f 67f
4:06 20 22 mph 1014mb 61f 67f
4:00 18 22 mph 1013.9mb 61f 66f
3:54 20 21 mph 1013.7mb 61f 67f
3:48 18 22 mph 1013.7mb 61f 67f
3:30 18 22 mph 1013.3mb 61f 67f
3:24 17 20 mph 1013.4mb 61f 67f
3:18 16 17 mph 1013.4mb 61f 67f
3:12 15 17 mph 1013.3mb 61f 67f
3:06 16 18 mph 1013.3mb 61f 67f
3:00 16 18 mph 1013.3mb 61f 67f
2:54 13 14 mph 1013.3mb 61f 67f
2:48 14
mph
1013.4mb 61f 67f
1:54 9 13 mph 1013.6mb 61f 66f
1:48 8 11 mph 1013.6mb 61f 66f
1:18 7 8 mph 1013.8mb 60f 67f
1:12 5 7 mph 1013.9mb 60f 67f
1:06 6 7 mph 1013.9mb 60f 66f
1:00 6 8 mph 1013.9mb 60f 65f
12:54 7 9 mph 1014mb 60f 65f
12:48 8 9 mph 1014mb 60f 65f
12:42 9 11 mph 1014mb 59f 65f
12:36 11
mph
1014mb 59f 65f
12:30 10 13 mph 1014mb 59f 65f
12:24 11 13 mph 1014.1mb 59f 65f
12:18 13 14 mph 1014.2mb 59f 65f
12:12 13 14 mph 1014.2mb 59f 65f
12:06 14 15 mph 1014.3mb 59f 65f
12:00 14 16 mph 1014.3mb 58f 65f
11:54 14 17 mph 1014.3mb 59f 65f
11:48 15 17 mph 1014.3mb 58f 65f
11:42 15 17 mph 1014.4mb 59f 65f
11:36 14 15 mph 1014.5mb 58f 64f
11:30 13 14 mph 1014.5mb 58f 65f
11:24 11 13 mph 1014.4mb 58f 65f
11:18 10
mph
1014.5mb 58f 65f
11:12 7 8 mph 1014.7mb 58f 65f
11:06 7
mph
1014.7mb 59f 65f
11:00 5 6 mph 1014.8mb 59f 65f
10:54 3 6 mph 1014.9mb 59f 65f
10:48 5 6 mph 1015mb 59f 65f
10:42 5 6 mph 1015mb 60f 65f
10:36 6
mph
1015.2mb 60f 64f
10:30 3 5 mph 1015.2mb 60f 65f
10:24 2 3 mph 1015.3mb 59f 65f
10:18 2 3 mph 1015.4mb 58f 64f
10:12 3 5 mph 1015.4mb 58f 63f
10:06 5 7 mph 1015.5mb 59f 62f
10:00 6 8 mph 1015.5mb 59f 62f
9:54 6 8 mph 1015.5mb 59f 61f
9:48 6 7 mph 1015.6mb 59f 62f
9:42 5 6 mph 1015.5mb 59f 62f
9:36 2 5 mph 1015.5mb 59f 62f
9:30 3 5 mph 1015.5mb 59f 62f
9:24 3 5 mph 1015.5mb 60f 61f
9:18 3
mph
1015.4mb 60f 61f
9:12 3
mph
1015.5mb 60f 61f
9:06 2 3 mph 1015.4mb 60f 61f
9:00 2 3 mph 1015.3mb 60f 61f
8:54 2
mph
1015.4mb 60f 60f
8:48 2 3 mph 1015.4mb 60f 60f
8:42 2 5 mph 1015.4mb 60f 60f
8:36 3 5 mph 1015.4mb 60f 59f
8:30 3 5 mph 1015.3mb 60f 60f
8:24 5
mph
1015.2mb 60f 60f
8:18 3 6 mph 1015.1mb 60f 60f
8:12 3 7 mph 1015.2mb 60f 60f
8:06 6 7 mph 1015mb 60f 59f
8:00 6 7 mph 1015mb 60f 59f
7:54 1 3 mph 1015mb 60f 59f
7:48 2 5 mph 1014.9mb 61f 58f
7:42 2 5 mph 1014.9mb 61f 58f
7:36 2 3 mph 1014.8mb 61f 58f
7:30 1 2 mph 1014.8mb 61f 58f
7:24 1 2 mph 1014.7mb 61f 57f
7:18  -  3 mph 1014.6mb 61f 57f
7:12 3 5 mph 1014.5mb 61f 56f
7:06 3 6 mph 1014.5mb 61f 56f
7:00 3 5 mph 1014.4mb 61f 56f
6:54 2 3 mph 1014.3mb 61f 57f
6:48 2 3 mph 1014.3mb 61f 57f
6:42  -  3 mph 1014.2mb 61f 57f
6:36 2 3 mph 1014.1mb 61f 58f
6:30 5 7 mph 1014mb 61f 59f
6:24 6 9 mph 1014mb 61f 59f
6:18 7 9 mph 1013.9mb 61f 59f
6:12 5 8 mph 1013.9mb 61f 58f
6:06 6 7 mph 1013.9mb 61f 58f
6:00 6 8 mph 1013.8mb 61f 58f
5:54 6
mph
1013.8mb 61f 58f
5:48 6 7 mph 1013.8mb 61f 58f
5:42 6 7 mph 1013.8mb 61f 58f
5:36 3
mph
1013.8mb 61f 58f
5:30 2 5 mph 1013.8mb 61f 59f
5:24 5 6 mph 1013.7mb 61f 59f
5:18 3 5 mph 1013.7mb 61f 59f
5:12 5
mph
1013.8mb 61f 59f
5:06 5 6 mph 1013.8mb 61f 59f
5:00 5 6 mph 1013.8mb 61f 59f
4:54 6
mph
1013.8mb 61f 59f
4:48 5 6 mph 1013.7mb 61f 59f
4:42 5
mph
1013.7mb 61f 59f
4:36 3 6 mph 1013.6mb 61f 60f
4:30 3 6 mph 1013.5mb 61f 60f
4:24 5 6 mph 1013.4mb 61f 60f
4:18 5 6 mph 1013.3mb 61f 60f
4:12 5 6 mph 1013.3mb 61f 60f
4:06 5 6 mph 1013.3mb 61f 60f
4:00 5 6 mph 1013.3mb 61f 60f
3:54 5
mph
1013.3mb 61f 60f
3:48 2 3 mph 1013.4mb 61f 60f
3:42 2 3 mph 1013.3mb 61f 60f
3:36 3 5 mph 1013.3mb 61f 60f
3:30 3
mph
1013.3mb 61f 59f
3:24  -  1 mph 1013.3mb 61f 59f
3:18  -  mph 1013.2mb 61f 59f
3:12  -  1 mph 1013.2mb 61f 59f
3:06  -  1 mph 1013.3mb 61f 59f
3:00  -  1 mph 1013.3mb 61f 59f
2:54  -  1 mph 1013.3mb 60f 59f
2:48  -  1 mph 1013.3mb 60f 59f
2:42  -  2 mph 1013.3mb 60f 59f
2:36 1 2 mph 1013.3mb 60f 59f
2:30 2
mph
1013.3mb 60f 59f
2:24  -  2 mph 1013.3mb 60f 58f
2:18 2 3 mph 1013.4mb 60f 59f
2:12 2 3 mph 1013.4mb 60f 59f
2:06 1 2 mph 1013.5mb 60f 59f
2:00 2
mph
1013.5mb 60f 59f
1:54 2 3 mph 1013.6mb 60f 59f
1:48 2 5 mph 1013.6mb 60f 59f
1:42 5 6 mph 1013.6mb 60f 60f
1:36 5 6 mph 1013.7mb 60f 60f
1:30 6 7 mph 1013.7mb 60f 60f
1:24 6 7 mph 1013.7mb 60f 60f
1:18 5 6 mph 1013.7mb 60f 59f
1:12 6 7 mph 1013.7mb 60f 60f
1:06 6 7 mph 1013.6mb 60f 60f
1:00 6 7 mph 1013.5mb 60f 60f
12:54 5 6 mph 1013.6mb 60f 59f
12:48 3 5 mph 1013.7mb 60f 59f
12:42 3 6 mph 1013.6mb 60f 60f
12:36 5
mph
1013.7mb 60f 60f
12:30 5 6 mph 1013.7mb 60f 60f
12:24 5 6 mph 1013.8mb 60f 60f
12:18 3
mph
1013.8mb 60f 60f
12:12 2 3 mph 1013.9mb 60f 59f
12:06 3 5 mph 1013.9mb 60f 60f
12:00 3 5 mph 1013.9mb 60f 60f
jeu. 12/01 11:54 5 6 mph 1013.9mb 60f 60f
11:48 5 6 mph 1013.9mb 60f 60f
11:42 5 6 mph 1014mb 60f 60f
11:36 6
mph
1014mb 60f 60f
11:30 3 6 mph 1013.9mb 60f 60f
11:24 6
mph
1013.9mb 60f 60f
11:18 6
mph
1014mb 60f 60f
11:12 5 6 mph 1014.1mb 60f 60f
11:06 5 6 mph 1014.2mb 60f 60f
11:00 5 6 mph 1014.3mb 59f 60f
10:54 3 5 mph 1014.2mb 59f 60f
10:48 5
mph
1014.2mb 59f 60f
10:42 2 3 mph 1014.3mb 59f 60f
10:36 2 5 mph 1014.2mb 59f 60f
10:30 2 3 mph 1014.1mb 59f 60f
10:24 3
mph
1014.1mb 61f 60f
10:18 3 5 mph 1014.1mb 61f 60f
10:12 3
mph
1014mb 61f 60f
10:06 2 3 mph 1013.9mb 61f 60f
10:00 3
mph
1013.9mb 61f 60f
9:54 2 3 mph 1013.9mb 61f 60f
9:48 1 2 mph 1013.9mb 60f 60f
9:42 2 3 mph 1013.9mb 60f 60f
9:36 3 5 mph 1013.9mb 60f 60f
9:30 3 5 mph 1014mb 60f 60f
9:24 2 3 mph 1014.1mb 60f 60f
9:18 2 3 mph 1014.2mb 61f 60f
9:12 3 6 mph 1014.2mb 61f 60f
9:06 5 6 mph 1014.1mb 61f 60f
9:00 5 6 mph 1014.1mb 60f 60f
8:54 6
mph
1014mb 61f 60f
8:48 5 6 mph 1014mb 61f 60f
8:42 3 5 mph 1014mb 61f 60f
8:36 2 3 mph 1013.9mb 61f 61f
8:30 3 5 mph 1013.9mb 61f 61f
8:24 3 5 mph 1013.9mb 61f 61f
8:18 3 5 mph 1013.9mb 61f 61f
8:12 5
mph
1013.9mb 61f 61f
8:06 3 5 mph 1014mb 61f 61f
8:00 3 5 mph 1014mb 61f 61f
7:54 3
mph
1014.1mb 61f 61f
7:48 3 5 mph 1014.2mb 60f 61f
7:42 3 5 mph 1014.1mb 60f 61f
7:36 3
mph
1014.1mb 60f 61f
7:30 2 3 mph 1014.1mb 61f 61f
7:24 2 3 mph 1014.1mb 61f 61f
7:18 3
mph
1014.1mb 61f 61f
7:12 3
mph
1014mb 61f 61f
7:06 3
mph
1014mb 61f 61f
7:00 3
mph
1014mb 61f 61f
6:54 3
mph
1013.9mb 61f 61f
6:48 3
mph
1013.9mb 61f 61f
6:30 3
mph
1014.1mb 61f 61f
6:24 3
mph
1014mb 61f 61f
6:18 3
mph
1014mb 61f 61f
6:12 3 5 mph 1014mb 61f 61f
6:06 3 6 mph 1013.9mb 61f 61f
6:00 5 6 mph 1013.9mb 61f 62f
5:54 5 6 mph 1013.8mb 61f 62f
5:48 5 6 mph 1013.7mb 61f 62f
5:30 6 7 mph 1013.7mb 61f 62f
5:24 7 8 mph 1013.7mb 61f 62f
5:18 6 7 mph 1013.7mb 61f 62f
5:12 6 9 mph 1013.6mb 61f 62f
5:06 7 8 mph 1013.5mb 61f 62f
5:00 8 9 mph 1013.5mb 61f 62f
4:54 7 10 mph 1013.4mb 61f 62f
4:48 7 9 mph 1013.5mb 61f 62f
4:42 7 10 mph 1013.4mb 61f 62f
4:36 8 10 mph 1013.3mb 61f 62f
4:30 9 10 mph 1013.3mb 61f 62f
4:24 10 11 mph 1013.3mb 61f 62f
4:18 10 11 mph 1013.3mb 61f 62f
4:12 9 10 mph 1013.2mb 61f 63f
4:06 9 10 mph 1013.3mb 61f 63f
4:00 8
mph
1013.2mb 61f 62f
3:54 7 8 mph 1013.3mb 61f 62f
3:48 7 8 mph 1013.2mb 61f 63f
3:42 6 8 mph 1013mb 61f 63f
3:36 7 8 mph 1012.9mb 61f 63f
3:30 6 7 mph 1012.9mb 61f 63f
3:24 6 8 mph 1012.9mb 61f 63f
3:18 7 8 mph 1012.9mb 61f 63f
3:12 7 9 mph 1013.1mb 61f 63f
3:06 8 9 mph 1013.1mb 61f 63f
3:00 7 10 mph 1013.1mb 61f 63f
2:54 9 10 mph 1013.2mb 61f 63f
2:48 10 11 mph 1013.2mb 61f 63f
2:42 9 11 mph 1013.2mb 61f 63f
2:36 10 11 mph 1013.2mb 61f 63f
2:30 10 11 mph 1013.2mb 61f 63f
2:24 9 10 mph 1013.1mb 61f 63f
2:18 10 11 mph 1013.1mb 61f 63f
2:12 9 11 mph 1013.1mb 61f 63f
2:06 8 9 mph 1013mb 61f 63f
2:00 8
mph
1013.1mb 61f 63f
1:54 8 9 mph 1013.3mb 61f 62f
1:48 9
mph
1013.3mb 61f 62f
1:42 9 10 mph 1013.4mb 61f 62f
1:36 10
mph
1013.5mb 61f 63f
1:30 8
mph
1013.5mb 61f 63f
1:24 6 8 mph 1013.5mb 61f 63f
1:18 8
mph
1013.5mb 61f 63f
1:12 6 7 mph 1013.5mb 61f 63f
1:06 6 7 mph 1013.6mb 61f 63f
1:00 6 7 mph 1013.6mb 61f 63f
12:54 6 7 mph 1013.7mb 61f 62f
12:48 5 6 mph 1013.7mb 61f 63f
12:42 6
mph
1013.8mb 61f 63f
12:36 5
mph
1013.9mb 61f 63f
12:30 5 6 mph 1014.1mb 61f 63f
12:24 5 6 mph 1014.2mb 61f 62f
12:18 6 7 mph 1014.3mb 61f 62f
12:12 6 7 mph 1014.5mb 61f 62f
12:06 6 7 mph 1014.5mb 61f 62f
12:00 7
mph
1014.7mb 61f 62f
11:54 7 8 mph 1014.9mb 61f 62f
11:48 6 8 mph 1014.8mb 61f 62f
11:42 7 9 mph 1014.9mb 60f 62f
11:36 7 8 mph 1015mb 60f 62f
11:30 7 8 mph 1015.1mb 60f 62f
11:24 7 8 mph 1015.1mb 61f 62f
11:18 8
mph
1015.2mb 60f 62f
11:12 6 8 mph 1015.3mb 60f 62f
11:06 7 8 mph 1015.5mb 60f 62f
11:00 8
mph
1015.6mb 61f 62f
10:54 8 9 mph 1015.8mb 61f 62f
10:48 8 9 mph 1015.9mb 61f 62f
9:54 6 7 mph 1016.3mb 58f 63f
9:48 3 5 mph 1016.3mb 56f 64f
9:30 6
mph
1016.5mb 56f 63f
9:24 5 6 mph 1016.4mb 56f 64f
9:18 3 6 mph 1016.5mb 57f 63f
9:12 6 7 mph 1016.5mb 57f 62f
9:06 6 8 mph 1016.3mb 58f 62f
9:00 6 9 mph 1016.1mb 58f 62f
8:54 6 9 mph 1016mb 58f 61f
8:48 7 10 mph 1015.9mb 59f 61f
8:42 8 10 mph 1016mb 59f 61f
8:36 7 13 mph 1015.8mb 59f 61f
8:30 9 13 mph 1015.9mb 59f 61f
8:24 8 11 mph 1016mb 59f 60f
8:18 8 10 mph 1016mb 58f 60f
8:12 7 9 mph 1016mb 58f 60f
8:06 7 9 mph 1015.8mb 58f 59f
8:00 7 10 mph 1015.7mb 58f 59f
7:54 8 11 mph 1015.7mb 58f 59f
7:48 9 13 mph 1015.5mb 58f 58f
7:42 9 11 mph 1015.5mb 58f 58f
7:36 10 13 mph 1015.4mb 58f 57f
7:30 8 11 mph 1015.3mb 58f 58f
7:24 9 13 mph 1015.1mb 58f 57f
7:18 8 11 mph 1015mb 58f 56f
7:12 9 11 mph 1014.9mb 57f 56f
7:06 9 13 mph 1014.9mb 58f 55f
7:00 9 13 mph 1014.9mb 58f 55f
6:54 10 13 mph 1014.9mb 58f 55f
6:48 11 14 mph 1014.8mb 58f 55f
6:42 11 14 mph 1014.9mb 58f 55f
6:36 13 15 mph 1014.8mb 58f 56f
6:30 10 13 mph 1014.8mb 58f 56f
6:24 10 11 mph 1014.9mb 58f 56f
6:18 10 13 mph 1014.9mb 58f 57f
6:12 11 13 mph 1014.7mb 58f 57f
6:06 11 13 mph 1014.7mb 58f 57f
6:00 10 13 mph 1014.6mb 59f 56f
5:54 11 14 mph 1014.6mb 59f 56f
5:48 11 14 mph 1014.5mb 59f 55f
5:42 13 14 mph 1014.4mb 59f 55f
5:36 13 14 mph 1014.4mb 59f 56f
5:30 13 14 mph 1014.3mb 59f 56f
5:24 11 14 mph 1014.2mb 59f 56f
5:18 11 14 mph 1014.1mb 60f 56f
5:12 13 17 mph 1014mb 60f 56f
5:06 15 16 mph 1013.7mb 60f 55f
5:00 14 16 mph 1014.1mb 60f 55f
4:54 14 16 mph 1014.2mb 60f 55f
4:48 14 16 mph 1014.2mb 60f 55f
4:42 15 18 mph 1014.2mb 60f 55f
4:36 15 17 mph 1014.2mb 60f 55f
4:30 14 16 mph 1014.3mb 60f 55f
4:24 14 17 mph 1014.3mb 60f 55f
4:18 14 16 mph 1014.4mb 60f 55f
4:12 14 16 mph 1014.5mb 60f 55f
4:06 13 16 mph 1014.8mb 60f 55f
4:00 15 16 mph 1014.7mb 60f 55f
3:54 14 16 mph 1014.8mb 60f 55f
3:48 14 16 mph 1014.9mb 60f 55f
3:42 14 17 mph 1014.9mb 60f 55f
3:36 15 17 mph 1014.8mb 61f 55f
3:30 15 17 mph 1014.8mb 61f 56f
3:24 14 16 mph 1015mb 61f 56f
3:18 14 16 mph 1015.2mb 61f 56f
3:12 14 17 mph 1015.4mb 61f 56f
3:06 13 15 mph 1015.3mb 61f 56f
3:00 14 16 mph 1015.5mb 61f 55f
2:54 15 17 mph 1015.3mb 61f 55f
2:48 15 17 mph 1015.1mb 61f 56f
2:42 15 17 mph 1015.2mb 61f 56f
2:36 15 17 mph 1015.3mb 61f 56f
2:30 15 17 mph 1015.6mb 61f 57f
2:24 14 16 mph 1015.8mb 61f 56f
2:18 14 16 mph 1015.9mb 61f 56f
2:12 14 16 mph 1016mb 61f 57f
2:06 14 15 mph 1016mb 61f 56f
2:00 13 15 mph 1016.1mb 61f 56f
1:54 14 15 mph 1016.2mb 61f 56f
1:48 13 14 mph 1016.3mb 61f 56f
1:42 14 15 mph 1016.4mb 61f 57f
1:36 13 15 mph 1016.4mb 61f 56f
1:30 13 15 mph 1016.4mb 61f 56f
1:24 13 16 mph 1016.3mb 61f 56f
1:18 14 16 mph 1016.3mb 61f 56f
1:12 15 16 mph 1016.2mb 61f 56f
1:06 14 16 mph 1016.1mb 61f 56f
1:00 14 16 mph 1016.1mb 61f 56f
12:54 15 16 mph 1016.1mb 61f 56f
12:48 14 16 mph 1016mb 61f 57f
12:42 13 14 mph 1016mb 61f 57f
12:36 13 15 mph 1016.2mb 61f 57f
12:30 11 14 mph 1016.2mb 61f 57f
12:24 10 13 mph 1016.2mb 61f 56f
12:18 9 14 mph 1016.1mb 61f 58f
12:12 11 13 mph 1016mb 61f 59f
12:06 9 11 mph 1016.1mb 61f 59f
12:00 10 13 mph 1016.3mb 61f 59f
mer. 11/30 11:54 9 11 mph 1016.5mb 61f 59f
11:48 9 10 mph 1016.5mb 61f 59f
11:42 9 11 mph 1016.4mb 61f 59f
11:36 8 10 mph 1016.3mb 61f 58f
11:30 9 10 mph 1016.3mb 61f 58f
11:24 8 11 mph 1016.4mb 61f 58f
11:18 9 11 mph 1016.3mb 61f 58f
11:12 9 11 mph 1016.4mb 61f 58f
11:06 9 10 mph 1016.4mb 61f 58f
11:00 9 11 mph 1016.4mb 61f 58f
10:54 9 10 mph 1016.4mb 61f 58f
10:48 9 10 mph 1016.4mb 61f 58f
10:42 9 10 mph 1016.3mb 61f 58f
10:36 10 11 mph 1016.1mb 61f 58f
10:30 10 11 mph 1016.1mb 61f 58f
10:24 10 11 mph 1016.1mb 61f 58f
10:18 10 13 mph 1016.2mb 61f 58f
10:12 10 11 mph 1016.1mb 61f 58f
10:06 10 11 mph 1016mb 61f 58f
10:00 11 13 mph 1016.1mb 61f 58f
9:54 10 11 mph 1016.1mb 61f 58f
9:48 10 11 mph 1016.1mb 61f -
9:42 10
mph
1016.1mb 61f -
9:36 10 11 mph 1016.1mb 61f -
9:30 9 10 mph 1016.1mb 61f 59f
9:24 9 10 mph 1016.1mb 61f 59f
9:18 9 10 mph 1016mb 61f 59f
9:12 10 11 mph 1015.9mb 62f 59f
9:06 10 11 mph 1016mb 62f 59f
9:00 9 11 mph 1016mb 61f 59f
8:54 9 11 mph 1016.1mb 61f 59f
8:48 9 10 mph 1016mb 61f 59f
8:42 9 10 mph 1016.1mb 61f 59f
8:36 8 10 mph 1016.1mb 61f 59f
8:30 9 10 mph 1016.1mb 61f 59f
8:24 8 9 mph 1016.2mb 61f 59f
8:18 8 9 mph 1016.1mb 61f 59f
8:12 8 9 mph 1016.2mb 62f 59f
8:06 8 10 mph 1016.2mb 62f 60f
8:00 8 9 mph 1016.2mb 62f 60f
7:54 9 10 mph 1016.2mb 62f 60f
7:48 9 10 mph 1016.2mb 62f 60f
7:42 9
mph
1016.2mb 62f 60f
7:36 5 7 mph 1016.2mb 62f 60f
7:30 2 5 mph 1016.2mb 62f 62f
7:24 5 6 mph 1016.3mb 62f 63f
7:18 5
mph
1016.3mb 62f 64f
7:12 5 6 mph 1016.2mb 62f 64f
7:06 6
mph
1016.3mb 62f 64f
7:00 5 6 mph 1016.3mb 62f 64f
6:54 5 8 mph 1016.3mb 62f 64f
6:48 7 8 mph 1016.4mb 62f 64f
6:42 6 8 mph 1016.3mb 62f 64f